createdAt,value
2019-01-08T00:00:36.396Z,19.37
2019-01-08T00:03:06.203Z,19.97
2019-01-08T00:05:36.020Z,19.63
2019-01-08T00:08:06.666Z,19.43
2019-01-08T00:10:36.547Z,18.40
2019-01-08T00:13:06.397Z,16.90
2019-01-08T00:15:36.627Z,19.37
2019-01-08T00:18:07.251Z,21.00
2019-01-08T00:20:37.571Z,18.00
2019-01-08T00:23:08.234Z,17.40
2019-01-08T00:25:38.832Z,18.07
2019-01-08T00:28:09.112Z,17.70
2019-01-08T00:30:39.408Z,17.77
2019-01-08T00:33:09.703Z,15.97
2019-01-08T00:35:39.943Z,18.13
2019-01-08T00:38:10.180Z,16.07
2019-01-08T00:40:39.978Z,15.80
2019-01-08T00:43:09.891Z,17.13
2019-01-08T00:45:40.447Z,17.47
2019-01-08T00:48:10.921Z,19.63
2019-01-08T00:50:41.354Z,18.07
2019-01-08T00:53:11.932Z,17.00
2019-01-08T00:55:42.446Z,19.83
2019-01-08T00:58:12.936Z,15.73
2019-01-08T01:00:43.324Z,19.07
2019-01-08T01:03:13.542Z,18.10
2019-01-08T01:05:44.093Z,18.03
2019-01-08T01:08:14.615Z,16.80
2019-01-08T01:10:44.680Z,17.73
2019-01-08T01:13:14.979Z,17.33
2019-01-08T01:15:47.223Z,17.60
2019-01-08T01:18:17.533Z,17.63
2019-01-08T01:20:47.724Z,17.20
2019-01-08T01:23:37.032Z,16.07
2019-01-08T01:26:07.618Z,13.97
2019-01-08T01:28:38.210Z,15.80
2019-01-08T01:31:08.783Z,15.33
2019-01-08T01:33:39.035Z,15.80
2019-01-08T01:36:09.578Z,13.73
2019-01-08T01:38:40.149Z,15.60
2019-01-08T01:41:10.750Z,16.80
2019-01-08T01:43:41.335Z,15.60
2019-01-08T01:46:11.316Z,14.20
2019-01-08T01:48:41.785Z,17.03
2019-01-08T01:51:12.205Z,14.37
2019-01-08T01:53:42.496Z,13.57
2019-01-08T01:56:12.971Z,14.40
2019-01-08T01:58:43.400Z,15.83
2019-01-08T02:01:13.618Z,16.07
2019-01-08T02:03:43.731Z,14.13
2019-01-08T02:06:13.870Z,15.77
2019-01-08T02:08:44.564Z,14.03
2019-01-08T02:11:14.633Z,14.10
2019-01-08T02:13:45.149Z,16.23
2019-01-08T02:16:15.760Z,16.13
2019-01-08T02:18:46.227Z,14.13
2019-01-08T02:21:16.846Z,13.00
2019-01-08T02:23:47.034Z,12.30
2019-01-08T02:26:17.599Z,11.30
2019-01-08T02:28:48.133Z,11.87
2019-01-08T02:31:18.729Z,11.93
2019-01-08T02:33:49.378Z,11.63
2019-01-08T02:36:19.938Z,12.50
2019-01-08T02:38:50.546Z,10.77
2019-01-08T02:41:21.219Z,12.63
2019-01-08T02:43:51.747Z,10.43
2019-01-08T02:46:22.417Z,10.67
2019-01-08T02:48:52.973Z,12.33
2019-01-08T02:51:23.616Z,12.33
2019-01-08T02:53:53.832Z,12.73
2019-01-08T02:56:24.297Z,9.23
2019-01-08T02:59:13.613Z,11.80
2019-01-08T03:01:44.117Z,12.40
2019-01-08T03:04:14.319Z,11.60
2019-01-08T03:06:44.215Z,12.27
2019-01-08T03:09:38.558Z,13.73
2019-01-08T03:12:08.787Z,12.57
2019-01-08T03:14:38.969Z,12.37
2019-01-08T03:17:09.593Z,11.93
2019-01-08T03:19:40.089Z,10.73
2019-01-08T03:22:10.706Z,11.80
2019-01-08T03:24:40.533Z,10.83
2019-01-08T03:27:10.882Z,13.40
2019-01-08T03:29:41.496Z,10.20
2019-01-08T03:32:12.079Z,10.93
2019-01-08T03:34:42.339Z,10.23
2019-01-08T03:37:12.571Z,8.27
2019-01-08T03:39:42.943Z,8.77
2019-01-08T03:42:13.565Z,7.13
2019-01-08T03:44:44.071Z,10.03
2019-01-08T03:47:14.223Z,8.80
2019-01-08T03:49:44.417Z,9.47
2019-01-08T03:52:14.575Z,9.73
2019-01-08T03:54:45.108Z,8.17
2019-01-08T03:57:15.396Z,7.00
2019-01-08T03:59:45.857Z,6.57
2019-01-08T04:02:15.993Z,6.73
2019-01-08T04:04:46.487Z,8.77
2019-01-08T04:07:16.699Z,6.63
2019-01-08T04:09:46.922Z,5.37
2019-01-08T04:12:17.648Z,6.03
2019-01-08T04:14:48.240Z,5.50
2019-01-08T04:17:18.362Z,5.57
2019-01-08T04:19:49.040Z,4.37
2019-01-08T04:22:19.632Z,3.93
2019-01-08T04:24:50.201Z,4.57
2019-01-08T04:27:20.382Z,3.80
2019-01-08T04:29:50.969Z,4.27
2019-01-08T04:32:21.281Z,5.07
2019-01-08T04:34:51.117Z,4.33
2019-01-08T04:37:21.642Z,3.70
2019-01-08T04:39:52.122Z,2.53
2019-01-08T04:42:22.609Z,3.60
2019-01-08T04:44:53.104Z,3.00
2019-01-08T04:47:23.613Z,3.53
2019-01-08T04:49:54.111Z,3.00
2019-01-08T04:52:24.300Z,3.03
2019-01-08T04:54:55.007Z,2.77
2019-01-08T04:57:25.320Z,3.67
2019-01-08T04:59:59.002Z,3.23
2019-01-08T05:02:28.099Z,2.50
2019-01-08T05:04:58.664Z,3.63
2019-01-08T05:07:29.191Z,3.77
2019-01-08T05:09:59.362Z,4.43
2019-01-08T05:12:29.959Z,3.90
2019-01-08T05:15:00.574Z,4.43
2019-01-08T05:17:30.879Z,3.83
2019-01-08T05:20:01.454Z,3.77
2019-01-08T05:22:42.780Z,4.10
2019-01-08T05:25:13.325Z,3.40
2019-01-08T05:27:43.780Z,2.63
2019-01-08T05:30:14.077Z,3.77
2019-01-08T05:32:44.652Z,3.30
2019-01-08T05:35:15.186Z,3.33
2019-01-08T05:37:45.472Z,3.63
2019-01-08T05:40:16.035Z,3.30
2019-01-08T05:42:46.182Z,2.40
2019-01-08T05:45:16.851Z,2.17
2019-01-08T05:47:47.421Z,1.83
2019-01-08T05:50:17.970Z,2.03
2019-01-08T05:52:48.639Z,1.77
2019-01-08T05:55:19.246Z,1.97
2019-01-08T05:57:49.931Z,1.53
2019-01-08T06:00:20.318Z,1.80
2019-01-08T06:02:50.975Z,1.20
2019-01-08T06:05:21.201Z,1.67
2019-01-08T06:08:10.577Z,1.77
2019-01-08T06:10:40.085Z,1.23
2019-01-08T06:13:10.317Z,6.57
2019-01-08T06:15:40.706Z,1.77
2019-01-08T06:18:11.218Z,1.40
2019-01-08T06:20:41.635Z,3.23
2019-01-08T06:23:11.767Z,1.27
2019-01-08T06:25:42.057Z,1.90
2019-01-08T06:28:12.663Z,1.10
2019-01-08T06:30:43.185Z,1.17
2019-01-08T06:33:32.475Z,1.13
2019-01-08T06:36:02.705Z,0.87
2019-01-08T06:38:33.337Z,1.10
2019-01-08T06:41:03.865Z,1.10
2019-01-08T06:43:34.035Z,3.80
2019-01-08T06:46:04.556Z,1.20
2019-01-08T06:48:35.047Z,1.27
2019-01-08T06:51:05.371Z,1.30
2019-01-08T06:53:35.839Z,1.10
2019-01-08T06:56:06.035Z,1.47
2019-01-08T06:58:36.566Z,1.80
2019-01-08T07:01:07.127Z,1.40
2019-01-08T07:03:37.671Z,2.17
2019-01-08T07:06:08.353Z,1.60
2019-01-08T07:08:38.546Z,2.60
2019-01-08T07:11:08.899Z,2.37
2019-01-08T07:13:39.170Z,1.57
2019-01-08T07:16:09.314Z,3.87
2019-01-08T07:18:39.589Z,2.20
2019-01-08T07:21:11.757Z,1.60
2019-01-08T07:23:41.367Z,3.87
2019-01-08T07:26:11.672Z,1.87
2019-01-08T07:28:42.268Z,2.53
2019-01-08T07:31:12.397Z,5.10
2019-01-08T07:33:42.993Z,1.50
2019-01-08T07:36:13.211Z,2.30
2019-01-08T07:38:43.687Z,1.90
2019-01-08T07:41:13.970Z,1.80
2019-01-08T07:43:44.556Z,2.63
2019-01-08T07:46:15.091Z,3.43
2019-01-08T07:48:45.675Z,2.10
2019-01-08T07:51:15.891Z,2.07
2019-01-08T07:53:46.451Z,1.67
2019-01-08T07:56:17.071Z,1.87
2019-01-08T07:58:47.283Z,2.20
2019-01-08T08:01:17.875Z,2.47
2019-01-08T08:03:48.635Z,3.50
2019-01-08T08:06:19.178Z,2.10
2019-01-08T08:08:49.675Z,2.13
2019-01-08T08:11:20.319Z,3.97
2019-01-08T08:13:50.811Z,1.63
2019-01-08T08:16:21.005Z,1.60
2019-01-08T08:18:51.605Z,2.30
2019-01-08T08:21:22.107Z,2.70
2019-01-08T08:23:52.429Z,1.93
2019-01-08T08:26:22.859Z,3.10
2019-01-08T08:28:53.405Z,2.33
2019-01-08T08:31:23.657Z,2.67
2019-01-08T08:33:54.243Z,2.30
2019-01-08T08:36:24.791Z,2.60
2019-01-08T08:38:55.090Z,2.27
2019-01-08T08:41:25.253Z,2.67
2019-01-08T08:43:54.722Z,2.37
2019-01-08T08:46:24.917Z,2.13
2019-01-08T08:48:54.885Z,3.70
2019-01-08T08:51:25.067Z,2.60
2019-01-08T08:53:55.458Z,3.80
2019-01-08T08:56:26.038Z,2.03
2019-01-08T08:58:56.262Z,2.30
2019-01-08T09:01:26.425Z,1.87
2019-01-08T09:03:57.021Z,1.80
2019-01-08T09:06:27.489Z,1.57
2019-01-08T09:08:57.015Z,3.17
2019-01-08T09:11:27.606Z,3.17
2019-01-08T09:13:58.048Z,1.50
2019-01-08T09:16:28.484Z,3.33
2019-01-08T09:18:59.088Z,1.90
2019-01-08T09:21:29.557Z,3.13
2019-01-08T09:24:00.087Z,7.53
2019-01-08T09:26:30.282Z,3.63
2019-01-08T09:29:00.909Z,3.87
2019-01-08T09:31:31.370Z,4.07
2019-01-08T09:34:02.002Z,4.23
2019-01-08T09:36:32.290Z,6.27
2019-01-08T09:39:02.191Z,8.10
2019-01-08T09:41:32.407Z,10.30
2019-01-08T09:44:03.057Z,7.33
2019-01-08T09:46:33.573Z,4.80
2019-01-08T09:49:04.093Z,6.77
2019-01-08T09:51:34.661Z,6.07
2019-01-08T09:54:05.141Z,6.37
2019-01-08T09:56:35.551Z,5.80
2019-01-08T09:59:05.951Z,4.83
2019-01-08T10:01:36.135Z,7.97
2019-01-08T10:04:06.707Z,4.53
2019-01-08T10:06:37.076Z,4.57
2019-01-08T10:09:08.153Z,9.10
2019-01-08T10:11:38.399Z,3.17
2019-01-08T10:14:09.033Z,6.47
2019-01-08T10:16:39.632Z,4.83
2019-01-08T10:19:09.871Z,5.30
2019-01-08T10:21:40.657Z,8.43
2019-01-08T10:24:11.135Z,4.07
2019-01-08T10:26:41.649Z,3.90
2019-01-08T10:29:12.029Z,6.43
2019-01-08T10:31:42.267Z,3.40
2019-01-08T10:34:12.537Z,3.73
2019-01-08T10:36:43.215Z,6.07
2019-01-08T10:39:13.023Z,5.10
2019-01-08T10:41:43.245Z,3.53
2019-01-08T10:44:13.683Z,5.67
2019-01-08T10:46:44.067Z,4.33
2019-01-08T10:49:14.593Z,5.00
2019-01-08T10:51:44.610Z,5.10
2019-01-08T10:54:14.741Z,6.47
2019-01-08T10:56:45.325Z,4.40
2019-01-08T10:59:15.961Z,3.40
2019-01-08T11:01:46.511Z,5.73
2019-01-08T11:04:16.791Z,6.10
2019-01-08T11:06:47.453Z,2.93
2019-01-08T11:09:18.013Z,14.63
2019-01-08T11:11:48.152Z,4.83
2019-01-08T11:14:18.810Z,5.57
2019-01-08T11:16:50.533Z,4.53
2019-01-08T11:19:21.423Z,10.80
2019-01-08T11:21:52.011Z,4.50
2019-01-08T11:24:22.531Z,5.83
2019-01-08T11:26:53.330Z,8.57
2019-01-08T11:29:23.519Z,4.37
2019-01-08T11:31:54.039Z,5.03
2019-01-08T11:34:24.725Z,9.53
2019-01-08T11:36:55.309Z,8.17
2019-01-08T11:39:25.833Z,3.90
2019-01-08T11:41:56.161Z,5.40
2019-01-08T11:44:26.348Z,5.77
2019-01-08T11:46:56.648Z,5.40
2019-01-08T11:49:27.211Z,8.63
2019-01-08T11:51:57.373Z,5.30
2019-01-08T11:54:27.913Z,4.67
2019-01-08T11:56:58.188Z,4.60
2019-01-08T11:59:28.005Z,8.63
2019-01-08T12:02:00.221Z,13.77
2019-01-08T12:04:30.711Z,8.50
2019-01-08T12:07:01.393Z,6.47
2019-01-08T12:09:32.011Z,7.57
2019-01-08T12:12:02.691Z,6.50
2019-01-08T12:14:32.892Z,6.33
2019-01-08T12:17:03.111Z,4.90
2019-01-08T12:19:33.288Z,4.90
2019-01-08T12:22:03.443Z,5.97
2019-01-08T12:24:33.968Z,6.57
2019-01-08T12:27:04.557Z,7.77
2019-01-08T12:29:35.053Z,7.77
2019-01-08T12:32:06.250Z,6.50
2019-01-08T12:34:37.243Z,7.47
2019-01-08T12:37:07.477Z,3.67
2019-01-08T12:39:38.161Z,3.57
2019-01-08T12:42:08.723Z,4.67
2019-01-08T12:44:39.430Z,5.30
2019-01-08T12:47:10.051Z,3.50
2019-01-08T12:49:40.229Z,5.60
2019-01-08T12:52:10.872Z,5.87
2019-01-08T12:54:41.617Z,3.20
2019-01-08T12:57:12.190Z,4.67
2019-01-08T12:59:42.574Z,6.27
2019-01-08T13:02:14.879Z,5.43
2019-01-08T13:04:45.252Z,4.60
2019-01-08T13:07:15.138Z,5.07
2019-01-08T13:09:45.553Z,4.07
2019-01-08T13:12:16.110Z,8.67
2019-01-08T13:14:46.593Z,6.40
2019-01-08T13:17:17.213Z,6.50
2019-01-08T13:19:47.831Z,8.67
2019-01-08T13:22:21.427Z,9.53
2019-01-08T13:24:51.947Z,8.03
2019-01-08T13:27:22.101Z,8.67
2019-01-08T13:29:52.062Z,4.33
2019-01-08T13:32:23.338Z,4.43
2019-01-08T13:34:54.084Z,4.33
2019-01-08T13:37:24.457Z,4.37
2019-01-08T13:39:55.473Z,7.23
2019-01-08T13:42:25.777Z,6.77
2019-01-08T13:44:56.011Z,6.67
2019-01-08T13:47:26.443Z,7.30
2019-01-08T13:49:56.428Z,7.37
2019-01-08T13:52:26.851Z,6.83
2019-01-08T13:54:57.359Z,8.10
2019-01-08T13:57:28.117Z,5.80
2019-01-08T13:59:58.620Z,4.00
2019-01-08T14:02:32.037Z,5.67
2019-01-08T14:05:01.447Z,5.00
2019-01-08T14:07:31.681Z,6.57
2019-01-08T14:10:02.219Z,5.90
2019-01-08T14:12:32.695Z,5.33
2019-01-08T14:15:03.073Z,4.37
2019-01-08T14:17:33.729Z,9.37
2019-01-08T14:20:03.522Z,3.73
2019-01-08T14:22:34.091Z,3.20
2019-01-08T14:25:04.412Z,5.67
2019-01-08T14:27:34.633Z,4.43
2019-01-08T14:30:05.624Z,5.67
2019-01-08T14:32:40.633Z,6.53
2019-01-08T14:35:07.876Z,4.90
2019-01-08T14:37:38.208Z,4.50
2019-01-08T14:40:08.476Z,4.53
2019-01-08T14:42:38.989Z,3.53
2019-01-08T14:45:09.550Z,5.77
2019-01-08T14:47:39.823Z,8.67
2019-01-08T14:50:28.733Z,7.13
2019-01-08T14:52:59.267Z,9.03
2019-01-08T14:55:29.523Z,6.10
2019-01-08T14:58:00.121Z,4.00
2019-01-08T15:00:30.661Z,6.23
2019-01-08T15:03:00.459Z,6.00
2019-01-08T15:05:31.056Z,5.30
2019-01-08T15:08:01.736Z,5.83
2019-01-08T15:10:31.899Z,6.13
2019-01-08T15:13:02.407Z,4.03
2019-01-08T15:15:32.277Z,3.70
2019-01-08T15:18:02.784Z,7.27
2019-01-08T15:20:33.079Z,9.00
2019-01-08T15:23:02.957Z,3.00
2019-01-08T15:25:33.219Z,5.27
2019-01-08T15:28:02.991Z,5.10
2019-01-08T15:30:44.836Z,7.00
2019-01-08T15:33:15.355Z,3.20
2019-01-08T15:35:45.837Z,6.67
2019-01-08T15:38:16.423Z,4.97
2019-01-08T15:40:46.359Z,3.43
2019-01-08T15:43:16.898Z,3.53
2019-01-08T15:45:47.385Z,3.07
2019-01-08T15:48:18.031Z,3.93
2019-01-08T15:50:48.605Z,4.10
2019-01-08T15:53:19.050Z,3.47
2019-01-08T15:55:49.647Z,5.50
2019-01-08T15:58:38.465Z,3.53
2019-01-08T16:01:08.987Z,3.80
2019-01-08T16:03:39.486Z,8.30
2019-01-08T16:06:10.083Z,4.47
2019-01-08T16:08:40.288Z,5.90
2019-01-08T16:11:10.855Z,4.70
2019-01-08T16:13:41.437Z,5.13
2019-01-08T16:16:11.941Z,5.97
2019-01-08T16:18:42.507Z,4.60
2019-01-08T16:21:13.149Z,1.93
2019-01-08T16:23:43.699Z,4.27
2019-01-08T16:26:14.161Z,4.50
2019-01-08T16:28:44.157Z,3.37
2019-01-08T16:31:33.396Z,3.23
2019-01-08T16:34:03.955Z,4.03
2019-01-08T16:36:34.433Z,4.97
2019-01-08T16:39:05.864Z,5.47
2019-01-08T16:41:36.466Z,4.10
2019-01-08T16:44:06.811Z,3.17
2019-01-08T16:46:37.215Z,2.20
2019-01-08T16:49:07.796Z,4.00
2019-01-08T16:51:38.408Z,7.60
2019-01-08T16:54:27.748Z,5.60
2019-01-08T16:56:58.250Z,6.67
2019-01-08T16:59:28.892Z,3.77
2019-01-08T17:01:59.121Z,3.60
2019-01-08T17:04:29.309Z,5.17
2019-01-08T17:06:59.881Z,2.87
2019-01-08T17:09:30.411Z,4.73
2019-01-08T17:12:00.900Z,3.27
2019-01-08T17:14:31.561Z,6.13
2019-01-08T17:17:01.794Z,7.60
2019-01-08T17:19:32.291Z,3.33
2019-01-08T17:22:02.964Z,5.70
2019-01-08T17:24:33.437Z,6.37
2019-01-08T17:27:03.555Z,3.90
2019-01-08T17:29:34.245Z,3.27
2019-01-08T17:32:04.844Z,3.13
2019-01-08T17:34:35.471Z,5.67
2019-01-08T17:37:06.075Z,4.00
2019-01-08T17:39:36.305Z,4.50
2019-01-08T17:42:06.571Z,6.23
2019-01-08T17:44:36.833Z,5.37
2019-01-08T17:47:07.312Z,9.17
2019-01-08T17:49:37.837Z,6.77
2019-01-08T17:52:08.109Z,3.70
2019-01-08T17:54:38.657Z,6.60
2019-01-08T17:57:09.209Z,7.20
2019-01-08T17:59:39.675Z,4.40
2019-01-08T18:02:12.191Z,5.90
2019-01-08T18:04:42.754Z,6.97
2019-01-08T18:07:12.715Z,4.70
2019-01-08T18:09:43.277Z,5.73
2019-01-08T18:12:13.496Z,6.57
2019-01-08T18:14:43.957Z,6.67
2019-01-08T18:17:14.417Z,24.27
2019-01-08T18:19:45.061Z,9.73
2019-01-08T18:22:15.677Z,5.33
2019-01-08T18:24:45.943Z,4.13
2019-01-08T18:27:16.144Z,5.63
2019-01-08T18:29:46.909Z,3.30
2019-01-08T18:32:17.248Z,4.53
2019-01-08T18:34:48.103Z,3.77
2019-01-08T18:37:18.443Z,3.40
2019-01-08T18:39:48.895Z,4.43
2019-01-08T18:42:19.220Z,3.10
2019-01-08T18:44:50.411Z,3.80
2019-01-08T18:47:21.101Z,4.00
2019-01-08T18:49:51.501Z,2.63
2019-01-08T18:52:22.241Z,7.30
2019-01-08T18:54:52.889Z,3.27
2019-01-08T18:57:23.592Z,2.77
2019-01-08T19:00:13.715Z,4.33
2019-01-08T19:02:45.085Z,7.43
2019-01-08T19:05:16.845Z,4.07
2019-01-08T19:07:47.525Z,4.47
2019-01-08T19:10:18.932Z,3.27
2019-01-08T19:12:50.293Z,2.80
2019-01-08T19:15:20.233Z,3.67
2019-01-08T19:17:51.039Z,1.47
2019-01-08T19:20:22.003Z,2.57
2019-01-08T19:22:52.825Z,3.87
2019-01-08T19:25:23.479Z,2.03
2019-01-08T19:27:54.050Z,2.90
2019-01-08T19:30:24.237Z,1.10
2019-01-08T19:32:54.892Z,1.77
2019-01-08T19:35:31.628Z,1.77
2019-01-08T19:37:56.753Z,2.30
2019-01-08T19:40:26.928Z,1.47
2019-01-08T19:42:57.544Z,4.63
2019-01-08T19:45:28.147Z,2.03
2019-01-08T19:47:58.663Z,3.27
2019-01-08T19:50:29.153Z,3.00
2019-01-08T19:52:59.600Z,2.67
2019-01-08T19:55:30.127Z,1.93
2019-01-08T19:58:00.730Z,6.70
2019-01-08T20:00:31.264Z,3.53
2019-01-08T20:03:01.823Z,3.20
2019-01-08T20:05:31.941Z,4.03
2019-01-08T20:08:02.448Z,2.40
2019-01-08T20:10:32.874Z,2.00
2019-01-08T20:13:03.094Z,3.37
2019-01-08T20:15:33.617Z,7.30
2019-01-08T20:18:04.179Z,4.80
2019-01-08T20:20:34.687Z,11.23
2019-01-08T20:23:23.291Z,8.00
2019-01-08T20:25:53.955Z,11.10
2019-01-08T20:28:24.173Z,9.07
2019-01-08T20:30:54.839Z,8.40
2019-01-08T20:33:25.296Z,9.40
2019-01-08T20:35:55.826Z,4.27
2019-01-08T20:38:25.865Z,10.10
2019-01-08T20:40:56.156Z,5.97
2019-01-08T20:43:27.116Z,8.40
2019-01-08T20:45:58.149Z,5.33
2019-01-08T20:48:28.188Z,4.73
2019-01-08T20:50:58.726Z,6.83
2019-01-08T20:53:33.799Z,6.23
2019-01-08T20:56:04.129Z,9.40
2019-01-08T20:58:34.724Z,8.10
2019-01-08T21:01:05.976Z,10.80
2019-01-08T21:03:36.577Z,7.70
2019-01-08T21:06:07.259Z,7.90
2019-01-08T21:08:38.318Z,7.13
2019-01-08T21:11:09.069Z,4.03
2019-01-08T21:13:39.889Z,8.23
2019-01-08T21:16:10.407Z,9.87
2019-01-08T21:18:41.454Z,5.57
2019-01-08T21:21:12.314Z,3.80
2019-01-08T21:23:42.444Z,7.27
2019-01-08T21:26:12.705Z,5.70
2019-01-08T21:28:44.066Z,6.53
2019-01-08T21:31:15.622Z,6.10
2019-01-08T21:33:46.338Z,5.87
2019-01-08T21:36:17.185Z,4.27
2019-01-08T21:38:48.188Z,6.17
2019-01-08T21:41:18.522Z,8.23
2019-01-08T21:43:48.456Z,6.70
2019-01-08T21:46:18.969Z,7.87
2019-01-08T21:48:49.852Z,9.57
2019-01-08T21:51:20.880Z,7.33
2019-01-08T21:53:51.593Z,6.93
2019-01-08T21:56:24.878Z,6.93
2019-01-08T21:58:55.186Z,8.27
2019-01-08T22:01:26.372Z,5.20
2019-01-08T22:04:15.700Z,7.00
2019-01-08T22:06:45.932Z,6.97
2019-01-08T22:09:16.270Z,5.83
2019-01-08T22:11:46.892Z,6.20
2019-01-08T22:14:17.478Z,9.87
2019-01-08T22:16:48.147Z,4.10
2019-01-08T22:19:18.633Z,6.83
2019-01-08T22:21:48.908Z,9.43
2019-01-08T22:24:18.865Z,9.30
2019-01-08T22:26:48.450Z,6.33
2019-01-08T22:29:19.012Z,6.43
2019-01-08T22:31:49.702Z,6.07
2019-01-08T22:34:19.879Z,5.17
2019-01-08T22:36:50.524Z,5.33
2019-01-08T22:39:21.215Z,5.83
2019-01-08T22:41:51.978Z,4.23
2019-01-08T22:44:22.633Z,2.60
2019-01-08T22:46:55.345Z,3.57
2019-01-08T22:49:24.760Z,6.77
2019-01-08T22:51:56.595Z,2.50
2019-01-08T22:54:27.058Z,5.57
2019-01-08T22:56:57.704Z,6.60
2019-01-08T22:59:28.376Z,2.13
2019-01-08T23:01:58.981Z,5.30
2019-01-08T23:04:29.487Z,5.27
2019-01-08T23:06:59.370Z,5.40
2019-01-08T23:09:31.066Z,3.30
2019-01-08T23:12:01.698Z,2.87
2019-01-08T23:14:32.151Z,2.83
2019-01-08T23:17:02.312Z,1.67
2019-01-08T23:19:32.908Z,3.60
2019-01-08T23:22:03.098Z,4.43
2019-01-08T23:24:33.900Z,2.43
2019-01-08T23:27:04.450Z,2.70
2019-01-08T23:29:34.686Z,4.07
2019-01-08T23:32:04.924Z,2.97
2019-01-08T23:34:35.478Z,2.50
2019-01-08T23:37:06.013Z,6.33
2019-01-08T23:39:36.566Z,8.77
2019-01-08T23:42:07.244Z,8.07
2019-01-08T23:44:37.646Z,7.73
2019-01-08T23:47:08.254Z,8.90
2019-01-08T23:49:38.242Z,5.30
2019-01-08T23:52:19.310Z,8.60
2019-01-08T23:54:50.242Z,4.43
2019-01-08T23:57:20.520Z,4.03
2019-01-08T23:59:51.067Z,3.27
